Time;durP1;ratioP1;P1;durP2;ratioP2;P2;SDS_P1;SDS_P2;PMS_P1;PMS_P2;Temp;Humidity;BMP_temperature;BMP_pressure;BME280_temperature;BME280_humidity;BME280_pressure;Samples;Min_cycle;Max_cycle;Signal;HPM_P1;HPM_P2
2023/08/27 00:02:23;;;;;;;0.90;0.77;;;17.40;78.30;;;;;;5012850;28;20378;-79
2023/08/27 00:04:49;;;;;;;2.38;1.05;;;17.30;78.30;;;;;;5019439;28;20053;-79
2023/08/27 00:07:16;;;;;;;1.00;0.90;;;17.30;78.40;;;;;;4997171;28;20125;-79
2023/08/27 00:09:41;;;;;;;1.00;0.90;;;17.30;78.40;;;;;;5017239;28;20563;-79
2023/08/27 00:12:07;;;;;;;2.92;1.10;;;17.40;78.50;;;;;;5010981;28;20089;-74
2023/08/27 00:14:33;;;;;;;0.50;0.50;;;17.40;78.60;;;;;;5014742;28;20121;-74
2023/08/27 00:16:59;;;;;;;0.93;0.80;;;17.40;78.60;;;;;;5009122;28;20168;-74
2023/08/27 00:19:24;;;;;;;0.98;0.85;;;17.40;78.50;;;;;;5015568;28;20038;-74
2023/08/27 00:21:51;;;;;;;0.80;0.80;;;17.40;78.50;;;;;;5015178;28;20540;-74
2023/08/27 00:24:17;;;;;;;1.23;0.60;;;17.40;78.60;;;;;;5016364;28;20505;-77
2023/08/27 00:26:43;;;;;;;0.77;0.77;;;17.40;78.70;;;;;;5006083;28;20030;-79
2023/08/27 00:29:08;;;;;;;0.47;0.47;;;17.40;78.90;;;;;;5012719;28;20589;-79
2023/08/27 00:31:34;;;;;;;0.60;0.60;;;17.40;79.00;;;;;;5013307;28;20393;-79
2023/08/27 00:34:00;;;;;;;0.80;0.80;;;17.50;79.10;;;;;;5022088;28;20034;-79
2023/08/27 00:36:25;;;;;;;0.65;0.65;;;17.50;79.10;;;;;;5013286;28;20455;-79
2023/08/27 00:38:51;;;;;;;0.73;0.70;;;17.50;79.10;;;;;;5017110;28;20405;-79
2023/08/27 00:41:17;;;;;;;0.70;0.70;;;17.40;79.10;;;;;;5018629;28;20420;-79
2023/08/27 00:43:43;;;;;;;0.75;0.75;;;17.50;79.20;;;;;;5022451;28;20037;-79
2023/08/27 00:46:10;;;;;;;0.82;0.82;;;17.50;79.20;;;;;;5017768;28;20037;-79
2023/08/27 00:48:36;;;;;;;1.10;0.63;;;17.50;79.30;;;;;;5018821;28;20072;-74
2023/08/27 00:51:03;;;;;;;1.88;0.93;;;17.40;79.20;;;;;;5017641;28;20021;-74
2023/08/27 00:53:28;;;;;;;1.80;1.02;;;17.40;79.20;;;;;;5019470;28;20132;-74
2023/08/27 00:55:54;;;;;;;0.55;0.50;;;17.40;79.30;;;;;;5018189;28;20125;-74
2023/08/27 00:58:20;;;;;;;1.08;0.75;;;17.40;79.40;;;;;;5016682;28;20494;-74
2023/08/27 01:00:46;;;;;;;1.30;0.70;;;17.30;79.40;;;;;;5016655;28;20080;-74
2023/08/27 01:03:11;;;;;;;0.88;0.57;;;17.30;79.60;;;;;;5033957;28;20032;-74
2023/08/27 01:05:37;;;;;;;0.55;0.55;;;17.30;79.60;;;;;;5019113;28;20041;-79
2023/08/27 01:08:21;;;;;;;0.70;0.60;;;17.30;79.70;;;;;;5022699;28;20029;-74
2023/08/27 01:10:53;;;;;;;0.60;0.60;;;17.30;79.50;;;;;;5015958;28;20022;-74
2023/08/27 01:13:28;;;;;;;0.60;0.60;;;17.30;79.60;;;;;;5017449;28;20095;-74
2023/08/27 01:15:58;;;;;;;1.25;0.70;;;17.30;79.70;;;;;;5016689;28;20028;-74
2023/08/27 01:18:25;;;;;;;0.60;0.60;;;17.30;79.60;;;;;;5019197;28;20026;-79
2023/08/27 01:20:50;;;;;;;0.60;0.60;;;17.30;79.70;;;;;;5002787;28;20133;-74
2023/08/27 01:23:16;;;;;;;2.75;1.00;;;17.30;79.60;;;;;;5017100;28;20453;-74
2023/08/27 01:25:47;;;;;;;0.75;0.75;;;17.40;79.70;;;;;;5012292;28;20034;-79
2023/08/27 01:28:40;;;;;;;1.03;0.73;;;17.40;79.70;;;;;;5014728;28;20026;-74
2023/08/27 01:31:14;;;;;;;2.75;0.75;;;17.30;79.70;;;;;;5013840;28;21242;-73
2023/08/27 01:33:41;;;;;;;1.02;0.80;;;17.30;79.80;;;;;;5016361;28;20488;-79
2023/08/27 01:36:09;;;;;;;1.00;0.90;;;17.30;79.90;;;;;;5028218;28;20034;-73
2023/08/27 01:38:35;;;;;;;0.95;0.90;;;17.30;80.00;;;;;;5012074;28;20069;-73
2023/08/27 01:41:00;;;;;;;0.55;0.55;;;17.30;80.10;;;;;;5010334;28;20038;-79
2023/08/27 01:43:28;;;;;;;0.77;0.77;;;17.30;80.10;;;;;;5010783;28;20093;-74
2023/08/27 01:45:54;;;;;;;0.60;0.60;;;17.30;80.20;;;;;;5009611;28;20505;-74
2023/08/27 01:48:20;;;;;;;1.40;0.80;;;17.30;80.10;;;;;;5012012;28;20033;-73
2023/08/27 01:50:46;;;;;;;1.02;0.82;;;17.30;80.00;;;;;;5008620;28;20034;-73
2023/08/27 01:53:12;;;;;;;0.80;0.80;;;17.30;80.00;;;;;;4993753;28;20120;-78
2023/08/27 01:55:38;;;;;;;1.73;1.02;;;17.30;80.00;;;;;;5013225;28;20545;-73
2023/08/27 01:58:04;;;;;;;0.77;0.77;;;17.30;80.00;;;;;;5014727;28;20030;-73
2023/08/27 02:00:30;;;;;;;1.05;0.85;;;17.30;80.10;;;;;;5011876;28;20026;-73
2023/08/27 02:02:56;;;;;;;0.80;0.80;;;17.30;80.00;;;;;;5027368;28;20129;-74
2023/08/27 02:05:21;;;;;;;0.73;0.68;;;17.40;80.20;;;;;;5015257;28;20096;-73
2023/08/27 02:07:47;;;;;;;1.10;0.95;;;17.40;80.20;;;;;;5016796;28;20053;-74
2023/08/27 02:10:16;;;;;;;0.75;0.75;;;17.40;80.30;;;;;;4996643;28;20394;-73
2023/08/27 02:12:42;;;;;;;2.20;1.10;;;17.40;80.30;;;;;;5016869;28;20327;-73
2023/08/27 02:15:08;;;;;;;0.70;0.60;;;17.40;80.50;;;;;;4999595;28;20096;-78
2023/08/27 02:17:34;;;;;;;0.95;0.50;;;17.30;80.50;;;;;;5016562;28;20142;-73
2023/08/27 02:20:00;;;;;;;2.15;1.23;;;17.30;80.60;;;;;;5014644;28;20113;-73
2023/08/27 02:22:26;;;;;;;0.70;0.60;;;17.30;80.60;;;;;;5011874;28;20156;-78
2023/08/27 02:24:52;;;;;;;0.80;0.80;;;17.30;80.70;;;;;;5015138;28;20132;-73
2023/08/27 02:27:18;;;;;;;0.70;0.70;;;17.30;80.70;;;;;;5020468;28;20544;-73
2023/08/27 02:29:44;;;;;;;1.23;0.90;;;17.30;80.70;;;;;;5011252;28;21923;-78
2023/08/27 02:32:09;;;;;;;1.17;0.73;;;17.30;80.70;;;;;;5032597;28;20033;-73
2023/08/27 02:34:35;;;;;;;0.77;0.77;;;17.30;80.70;;;;;;5011961;28;20113;-73
2023/08/27 02:37:00;;;;;;;0.70;0.70;;;17.30;80.70;;;;;;4997233;28;20033;-73
2023/08/27 02:39:26;;;;;;;0.70;0.70;;;17.30;80.70;;;;;;5018830;28;20060;-73
2023/08/27 02:41:52;;;;;;;0.65;0.60;;;17.30;80.60;;;;;;5014256;28;20036;-73
2023/08/27 02:44:17;;;;;;;1.48;0.70;;;17.20;80.50;;;;;;5009164;28;20088;-73
2023/08/27 02:46:43;;;;;;;0.80;0.60;;;17.20;80.50;;;;;;4998186;28;20578;-73
2023/08/27 02:49:09;;;;;;;0.55;0.55;;;17.20;80.50;;;;;;5016903;28;20033;-73
2023/08/27 02:51:34;;;;;;;0.80;0.80;;;17.10;80.50;;;;;;5019665;28;20120;-73
2023/08/27 02:54:00;;;;;;;0.47;0.47;;;17.20;80.50;;;;;;5013919;28;20029;-73
2023/08/27 02:56:26;;;;;;;0.60;0.60;;;17.10;80.50;;;;;;5012106;28;20034;-73
2023/08/27 02:58:51;;;;;;;0.50;0.45;;;17.10;80.40;;;;;;5014037;28;20071;-73
2023/08/27 03:01:20;;;;;;;1.20;1.00;;;17.10;80.40;;;;;;5018926;28;20173;-73
2023/08/27 03:03:46;;;;;;;1.10;0.98;;;17.10;80.40;;;;;;5000013;28;20125;-73
2023/08/27 03:06:12;;;;;;;0.60;0.52;;;17.10;80.40;;;;;;5013591;28;20092;-73
2023/08/27 03:08:38;;;;;;;0.90;0.80;;;17.20;80.50;;;;;;5026568;28;20029;-78
2023/08/27 03:11:03;;;;;;;0.75;0.63;;;17.20;80.50;;;;;;5011182;28;20481;-77
2023/08/27 03:13:29;;;;;;;1.23;0.95;;;17.20;80.50;;;;;;4986555;28;20034;-77
2023/08/27 03:15:55;;;;;;;1.10;1.00;;;17.20;80.60;;;;;;5010581;28;20026;-73
2023/08/27 03:18:21;;;;;;;0.60;0.60;;;17.20;80.60;;;;;;5012502;28;20029;-73
2023/08/27 03:20:47;;;;;;;0.50;0.50;;;17.20;80.50;;;;;;4996673;28;20041;-73
2023/08/27 03:23:12;;;;;;;3.38;0.82;;;17.20;80.50;;;;;;5011676;28;20044;-79
2023/08/27 03:25:38;;;;;;;0.73;0.70;;;17.20;80.60;;;;;;5017800;28;20388;-76
2023/08/27 03:28:04;;;;;;;1.05;0.90;;;17.20;80.70;;;;;;5009806;28;20041;-73
2023/08/27 03:30:30;;;;;;;0.57;0.55;;;17.20;80.80;;;;;;5009404;28;20026;-73
2023/08/27 03:32:56;;;;;;;0.52;0.50;;;17.20;80.90;;;;;;5003785;28;20041;-77
2023/08/27 03:35:22;;;;;;;0.50;0.50;;;17.20;80.90;;;;;;5015264;28;20484;-73
2023/08/27 03:37:47;;;;;;;0.68;0.43;;;17.20;81.00;;;;;;4993948;28;20384;-73
2023/08/27 03:40:13;;;;;;;1.70;0.93;;;17.20;81.10;;;;;;5025932;28;20437;-77
2023/08/27 03:42:39;;;;;;;1.17;0.95;;;17.30;81.10;;;;;;5005606;28;20484;-77
2023/08/27 03:45:05;;;;;;;0.50;0.50;;;17.30;81.10;;;;;;5007059;28;20105;-77
2023/08/27 03:47:30;;;;;;;0.70;0.70;;;17.30;81.10;;;;;;5025869;28;20499;-76
2023/08/27 03:49:56;;;;;;;2.08;0.80;;;17.30;81.10;;;;;;5007461;28;20029;-71
2023/08/27 03:52:22;;;;;;;1.02;0.63;;;17.30;81.10;;;;;;5012532;28;20026;-71
2023/08/27 03:54:47;;;;;;;0.60;0.60;;;17.40;81.20;;;;;;5017225;28;20041;-75
2023/08/27 03:57:13;;;;;;;0.50;0.50;;;17.30;81.10;;;;;;5018097;28;20042;-76
2023/08/27 03:59:39;;;;;;;1.02;0.80;;;17.30;81.10;;;;;;5008313;28;20678;-71
2023/08/27 04:02:04;;;;;;;1.48;0.85;;;17.30;81.40;;;;;;5031975;28;20112;-71
2023/08/27 04:04:32;;;;;;;0.82;0.73;;;17.20;81.40;;;;;;5016358;28;20044;-71
2023/08/27 04:06:58;;;;;;;1.08;1.00;;;17.10;81.60;;;;;;5018410;28;20108;-71
2023/08/27 04:09:24;;;;;;;0.93;0.63;;;17.00;82.00;;;;;;4995957;28;20022;-76
2023/08/27 04:11:50;;;;;;;0.77;0.70;;;17.00;82.10;;;;;;5013670;28;20091;-76
2023/08/27 04:14:16;;;;;;;0.63;0.60;;;16.90;83.00;;;;;;5015771;28;20061;-71
2023/08/27 04:16:41;;;;;;;0.77;0.50;;;16.90;82.60;;;;;;5010971;28;20072;-71
2023/08/27 04:19:07;;;;;;;0.90;0.82;;;16.90;82.60;;;;;;5010607;28;20076;-71
2023/08/27 04:21:33;;;;;;;0.68;0.47;;;17.00;82.60;;;;;;4996732;28;20049;-76
2023/08/27 04:23:58;;;;;;;0.90;0.65;;;17.00;82.50;;;;;;5015255;28;20030;-71
2023/08/27 04:26:24;;;;;;;2.25;1.08;;;17.10;82.50;;;;;;5014260;28;20101;-71
2023/08/27 04:28:50;;;;;;;3.08;0.90;;;17.10;82.40;;;;;;5011836;28;20030;-70
2023/08/27 04:31:18;;;;;;;0.98;0.82;;;17.10;82.30;;;;;;5014347;28;20093;-76
2023/08/27 04:33:44;;;;;;;1.20;1.10;;;17.00;82.50;;;;;;5011996;28;20124;-76
2023/08/27 04:36:10;;;;;;;2.00;0.88;;;16.90;82.80;;;;;;5010329;28;20110;-76
2023/08/27 04:38:36;;;;;;;2.17;1.27;;;16.90;83.10;;;;;;5014614;28;20037;-76
2023/08/27 04:41:01;;;;;;;2.25;1.20;;;16.90;83.30;;;;;;5008615;28;20091;-71
2023/08/27 04:43:27;;;;;;;0.88;0.80;;;16.90;83.30;;;;;;5025246;28;20028;-76
2023/08/27 04:45:53;;;;;;;1.10;1.00;;;16.90;83.20;;;;;;4981541;28;20033;-76
2023/08/27 04:48:19;;;;;;;1.48;0.73;;;16.90;83.20;;;;;;5018147;28;20034;-71
2023/08/27 04:50:48;;;;;;;0.45;0.43;;;16.90;83.20;;;;;;5014148;28;20037;-71
2023/08/27 04:53:14;;;;;;;2.08;0.80;;;16.90;83.30;;;;;;5012895;28;20029;-71
2023/08/27 04:55:40;;;;;;;0.98;0.80;;;16.90;83.30;;;;;;5014562;28;20113;-76
2023/08/27 04:58:08;;;;;;;2.40;0.75;;;16.90;83.20;;;;;;5030111;28;20120;-76
2023/08/27 05:00:34;;;;;;;0.95;0.77;;;17.00;83.20;;;;;;5015474;28;20037;-76
2023/08/27 05:03:01;;;;;;;0.90;0.80;;;17.00;83.20;;;;;;5010959;28;20037;-75
2023/08/27 05:05:27;;;;;;;1.35;1.08;;;17.00;83.20;;;;;;5010688;28;20128;-75
2023/08/27 05:07:53;;;;;;;0.98;0.88;;;17.10;83.20;;;;;;5009119;28;20128;-71
2023/08/27 05:10:18;;;;;;;1.00;0.88;;;17.10;83.10;;;;;;5015795;28;20546;-71
2023/08/27 05:12:44;;;;;;;0.50;0.50;;;17.20;83.10;;;;;;5013569;28;20041;-71
2023/08/27 05:15:10;;;;;;;1.85;1.23;;;17.20;83.10;;;;;;5006367;28;20500;-71
2023/08/27 05:17:35;;;;;;;1.20;0.90;;;17.20;83.10;;;;;;5032953;28;20373;-75
2023/08/27 05:20:04;;;;;;;1.45;0.70;;;17.20;83.10;;;;;;5017412;28;20025;-75
2023/08/27 05:22:29;;;;;;;0.52;0.52;;;17.20;83.20;;;;;;5010927;28;20121;-75
2023/08/27 05:25:00;;;;;;;0.95;0.70;;;17.20;83.20;;;;;;5009368;28;20026;-76
2023/08/27 05:27:26;;;;;;;0.60;0.60;;;17.20;83.20;;;;;;5017086;28;20045;-76
2023/08/27 05:29:52;;;;;;;0.60;0.50;;;17.20;83.20;;;;;;5013605;28;20033;-76
2023/08/27 05:32:18;;;;;;;1.98;0.70;;;17.20;83.10;;;;;;5027479;28;20087;-76
2023/08/27 05:34:44;;;;;;;1.27;0.70;;;17.20;83.10;;;;;;5017441;28;20042;-72
2023/08/27 05:37:09;;;;;;;0.60;0.50;;;17.20;83.00;;;;;;5019106;28;20039;-72
2023/08/27 05:39:35;;;;;;;1.00;0.40;;;17.20;83.00;;;;;;5017704;28;20033;-72
2023/08/27 05:42:01;;;;;;;0.60;0.60;;;17.20;82.90;;;;;;5012560;28;20064;-75
2023/08/27 05:44:26;;;;;;;0.47;0.47;;;17.20;82.80;;;;;;5011844;28;20505;-76
2023/08/27 05:46:52;;;;;;;0.40;0.40;;;17.20;82.80;;;;;;5032394;28;20028;-75
2023/08/27 05:49:18;;;;;;;1.95;0.80;;;17.20;82.70;;;;;;5014079;28;20086;-75
2023/08/27 05:51:45;;;;;;;2.08;0.80;;;17.30;82.70;;;;;;5009708;28;20481;-75
2023/08/27 05:54:10;;;;;;;0.60;0.50;;;17.30;82.50;;;;;;5014599;28;20061;-76
2023/08/27 05:56:36;;;;;;;0.68;0.60;;;17.30;82.30;;;;;;5017269;28;20432;-75
2023/08/27 05:59:03;;;;;;;0.63;0.45;;;17.20;82.50;;;;;;5019384;28;20389;-72
2023/08/27 06:01:29;;;;;;;1.15;0.50;;;17.30;82.60;;;;;;5019095;28;20367;-75
2023/08/27 06:03:55;;;;;;;3.78;0.65;;;17.30;82.60;;;;;;5015194;28;20087;-70
2023/08/27 06:06:21;;;;;;;0.63;0.50;;;17.30;82.60;;;;;;5015857;28;20172;-70
2023/08/27 06:08:47;;;;;;;1.17;0.55;;;17.30;82.60;;;;;;5012998;28;20053;-75
2023/08/27 06:11:12;;;;;;;0.50;0.30;;;17.40;82.60;;;;;;5006897;28;20034;-76
2023/08/27 06:13:38;;;;;;;0.52;0.45;;;17.40;82.60;;;;;;5011320;28;20038;-75
2023/08/27 06:16:04;;;;;;;1.17;0.60;;;17.50;82.60;;;;;;5030769;28;20030;-75
2023/08/27 06:18:30;;;;;;;0.45;0.45;;;17.60;82.50;;;;;;5008597;28;20044;-75
2023/08/27 06:20:55;;;;;;;0.95;0.75;;;17.60;82.60;;;;;;5006883;28;20034;-76
2023/08/27 06:23:22;;;;;;;1.75;0.40;;;17.70;82.60;;;;;;4993933;28;20494;-69
2023/08/27 06:25:47;;;;;;;0.50;0.40;;;17.70;82.40;;;;;;5007258;28;20172;-68
2023/08/27 06:28:15;;;;;;;0.63;0.63;;;17.70;82.30;;;;;;4994716;28;20588;-70
2023/08/27 06:30:44;;;;;;;0.50;0.50;;;17.70;82.30;;;;;;5009383;28;20088;-70
2023/08/27 06:33:11;;;;;;;0.57;0.50;;;17.70;82.30;;;;;;5006920;28;20481;-69
2023/08/27 06:35:37;;;;;;;0.63;0.57;;;17.70;82.30;;;;;;5011018;28;20168;-74
2023/08/27 06:38:03;;;;;;;0.80;0.75;;;17.70;82.30;;;;;;5008797;28;20121;-74
2023/08/27 06:40:29;;;;;;;1.60;0.55;;;17.80;82.30;;;;;;5014745;28;20493;-72
2023/08/27 06:42:56;;;;;;;2.35;1.00;;;17.80;82.20;;;;;;5015979;28;20034;-72
2023/08/27 06:45:22;;;;;;;0.70;0.70;;;17.90;82.10;;;;;;5018871;28;20476;-72
2023/08/27 06:47:47;;;;;;;0.77;0.77;;;17.80;82.00;;;;;;5015517;28;20037;-71
2023/08/27 06:50:13;;;;;;;0.98;0.85;;;17.80;82.00;;;;;;5013682;28;20141;-71
2023/08/27 06:52:39;;;;;;;4.15;0.80;;;17.80;82.20;;;;;;5015740;28;20109;-72
2023/08/27 06:55:04;;;;;;;0.70;0.60;;;17.80;82.10;;;;;;4997391;28;20469;-72
2023/08/27 06:57:30;;;;;;;0.77;0.77;;;17.70;82.30;;;;;;5016206;28;20029;-71
2023/08/27 06:59:56;;;;;;;4.28;0.70;;;17.70;82.50;;;;;;5009819;28;20029;-69
2023/08/27 07:02:21;;;;;;;0.52;0.52;;;17.70;82.50;;;;;;5005378;28;20025;-71
2023/08/27 07:04:47;;;;;;;1.40;0.90;;;17.70;82.60;;;;;;5014454;28;20034;-71
2023/08/27 07:07:13;;;;;;;1.73;0.90;;;17.80;82.60;;;;;;5008762;28;20270;-72
2023/08/27 07:09:38;;;;;;;0.60;0.50;;;17.80;82.50;;;;;;5014908;28;20041;-72
2023/08/27 07:12:05;;;;;;;1.52;0.73;;;17.90;82.60;;;;;;5013958;28;20563;-71
2023/08/27 07:14:31;;;;;;;0.50;0.50;;;18.00;82.70;;;;;;5022038;28;20022;-71
2023/08/27 07:16:56;;;;;;;0.77;0.77;;;18.00;82.40;;;;;;4989492;28;20374;-71
2023/08/27 07:19:22;;;;;;;1.08;0.70;;;18.10;82.30;;;;;;5008474;28;20033;-71
2023/08/27 07:21:48;;;;;;;1.10;0.63;;;18.10;82.20;;;;;;5013488;28;20046;-71
2023/08/27 07:24:13;;;;;;;0.80;0.80;;;18.10;82.30;;;;;;5010743;28;20088;-72
2023/08/27 07:26:40;;;;;;;0.55;0.50;;;18.10;82.40;;;;;;5007446;28;20022;-72
2023/08/27 07:29:05;;;;;;;3.08;0.98;;;18.20;82.20;;;;;;5012851;28;20022;-72
2023/08/27 07:31:31;;;;;;;0.70;0.70;;;18.20;82.10;;;;;;5011579;28;20037;-74
2023/08/27 07:33:57;;;;;;;0.82;0.70;;;18.20;82.10;;;;;;5011355;28;20089;-72
2023/08/27 07:36:26;;;;;;;1.25;1.10;;;18.30;82.20;;;;;;5010302;28;20041;-71
2023/08/27 07:38:52;;;;;;;1.02;0.98;;;18.30;82.10;;;;;;5011525;28;20034;-72
2023/08/27 07:41:17;;;;;;;1.20;1.00;;;18.30;82.00;;;;;;5012268;28;20057;-74
2023/08/27 07:43:43;;;;;;;5.18;2.05;;;18.40;82.10;;;;;;5006234;28;20101;-74
2023/08/27 07:46:09;;;;;;;0.88;0.85;;;18.50;82.10;;;;;;5012540;28;20022;-74
2023/08/27 07:48:34;;;;;;;2.40;1.35;;;18.60;82.10;;;;;;5013980;28;20030;-74
2023/08/27 07:51:02;;;;;;;1.70;1.23;;;18.60;81.70;;;;;;5004944;28;20021;-73
2023/08/27 07:53:28;;;;;;;2.80;1.35;;;18.70;81.70;;;;;;5003949;28;20025;-74
2023/08/27 07:55:55;;;;;;;1.05;0.88;;;18.60;81.60;;;;;;4991283;28;20030;-74
2023/08/27 07:58:21;;;;;;;1.08;0.80;;;18.70;81.80;;;;;;5014866;28;20033;-74
2023/08/27 08:00:46;;;;;;;1.17;0.80;;;18.80;81.80;;;;;;5009831;28;20021;-74
2023/08/27 08:03:13;;;;;;;3.28;1.70;;;18.90;81.60;;;;;;5018200;28;20448;-74
2023/08/27 08:05:39;;;;;;;1.45;1.17;;;19.10;81.40;;;;;;5003222;28;20038;-72
2023/08/27 08:08:05;;;;;;;1.17;1.08;;;19.10;81.40;;;;;;5006038;28;20030;-72
2023/08/27 08:10:30;;;;;;;1.10;1.00;;;19.20;81.40;;;;;;5012432;28;20029;-72
2023/08/27 08:12:56;;;;;;;1.67;0.70;;;19.30;81.20;;;;;;5017852;28;20563;-72
2023/08/27 08:15:22;;;;;;;3.53;0.90;;;19.50;80.90;;;;;;5007466;28;20116;-71
2023/08/27 08:17:47;;;;;;;2.08;1.17;;;19.60;80.60;;;;;;5015608;28;20084;-73
2023/08/27 08:20:13;;;;;;;2.78;1.48;;;19.60;80.40;;;;;;5009248;28;20029;-73
2023/08/27 08:22:40;;;;;;;4.32;1.30;;;19.50;79.50;;;;;;5008143;28;20721;-73
2023/08/27 08:25:06;;;;;;;2.22;1.88;;;19.40;79.60;;;;;;5021225;28;20469;-73
2023/08/27 08:27:33;;;;;;;1.80;1.20;;;19.30;80.20;;;;;;5012811;28;20041;-76
2023/08/27 08:30:00;;;;;;;4.00;0.90;;;19.30;80.30;;;;;;5012783;28;20022;-75
2023/08/27 08:32:25;;;;;;;5.68;1.48;;;19.30;80.50;;;;;;5006538;28;20493;-75
2023/08/27 08:34:51;;;;;;;2.65;1.25;;;19.40;80.70;;;;;;5012267;28;20038;-75
2023/08/27 08:37:17;;;;;;;0.98;0.80;;;19.40;80.30;;;;;;5023166;28;20088;-76
2023/08/27 08:39:43;;;;;;;6.38;1.50;;;19.50;80.30;;;;;;5008379;28;20048;-76
2023/08/27 08:42:31;;;;;;;1.20;1.10;;;19.50;79.40;;;;;;5010071;28;20425;-76
2023/08/27 08:45:19;;;;;;;2.72;1.30;;;19.50;79.20;;;;;;5008913;28;20026;-75
2023/08/27 08:47:47;;;;;;;1.92;1.33;;;19.50;79.00;;;;;;5007681;28;20035;-73
2023/08/27 08:50:14;;;;;;;1.98;1.58;;;19.30;78.50;;;;;;5009992;28;20121;-72
2023/08/27 08:52:40;;;;;;;1.63;1.50;;;19.20;78.70;;;;;;5023797;28;20031;-73
2023/08/27 08:55:15;;;;;;;1.60;1.50;;;19.20;78.90;;;;;;5010769;28;20109;-73
2023/08/27 08:57:45;;;;;;;2.72;1.40;;;19.30;78.70;;;;;;5013277;28;20083;-73
2023/08/27 09:00:12;;;;;;;1.88;1.30;;;19.30;78.70;;;;;;5013900;28;20018;-73
2023/08/27 09:02:39;;;;;;;1.63;1.40;;;19.50;78.50;;;;;;5005409;28;20038;-75
2023/08/27 09:05:06;;;;;;;5.43;1.60;;;19.70;77.90;;;;;;5008167;28;20038;-75
2023/08/27 09:07:33;;;;;;;1.25;1.15;;;19.80;77.60;;;;;;5013903;28;20040;-75
2023/08/27 09:10:00;;;;;;;2.67;1.30;;;19.90;77.50;;;;;;5012067;28;20037;-75
2023/08/27 09:12:27;;;;;;;1.60;1.10;;;20.10;76.80;;;;;;5005600;28;20157;-75
2023/08/27 09:14:54;;;;;;;7.63;1.63;;;20.20;76.70;;;;;;5010436;28;20072;-74
2023/08/27 09:17:21;;;;;;;1.75;1.20;;;20.30;75.60;;;;;;5008780;28;20069;-75
2023/08/27 09:19:47;;;;;;;2.58;1.05;;;20.30;74.30;;;;;;5024557;28;20041;-75
2023/08/27 09:22:14;;;;;;;1.30;1.10;;;20.40;75.00;;;;;;5013402;28;20045;-73
2023/08/27 09:24:40;;;;;;;1.52;1.42;;;20.60;74.90;;;;;;5014881;28;20029;-73
2023/08/27 09:27:06;;;;;;;1.60;1.38;;;20.80;74.60;;;;;;5014260;28;20022;-73
2023/08/27 09:29:33;;;;;;;1.67;1.25;;;20.90;72.60;;;;;;5014629;28;20030;-75
2023/08/27 09:31:59;;;;;;;1.67;1.23;;;21.00;72.90;;;;;;5016427;28;20044;-75
2023/08/27 09:34:25;;;;;;;1.00;0.90;;;21.10;71.60;;;;;;5004698;28;20489;-74
2023/08/27 09:36:51;;;;;;;1.95;0.85;;;21.10;71.00;;;;;;5010872;28;20037;-74
2023/08/27 09:39:17;;;;;;;0.77;0.77;;;21.10;70.70;;;;;;5015956;28;20034;-75
2023/08/27 09:41:44;;;;;;;2.83;1.30;;;21.10;70.00;;;;;;5015267;28;20385;-75
2023/08/27 09:44:10;;;;;;;1.30;0.73;;;21.20;69.60;;;;;;5010494;28;20117;-75
2023/08/27 09:46:37;;;;;;;2.08;1.67;;;21.30;69.20;;;;;;5014701;28;20398;-75
2023/08/27 09:49:07;;;;;;;0.98;0.80;;;21.40;68.70;;;;;;5011574;28;20022;-75
2023/08/27 09:51:35;;;;;;;0.75;0.75;;;21.50;68.60;;;;;;5011962;28;20040;-73
2023/08/27 09:54:15;;;;;;;1.30;1.20;;;21.60;68.40;;;;;;5009485;28;20029;-73
2023/08/27 09:56:45;;;;;;;0.88;0.70;;;21.70;66.90;;;;;;5014526;28;20045;-70
2023/08/27 09:59:14;;;;;;;0.70;0.70;;;21.50;66.90;;;;;;5011628;28;20030;-71
2023/08/27 10:01:39;;;;;;;0.80;0.80;;;21.50;66.40;;;;;;4999558;28;20540;-72
2023/08/27 10:04:10;;;;;;;1.00;0.70;;;21.60;65.90;;;;;;5013117;28;20113;-73
2023/08/27 10:06:36;;;;;;;0.63;0.63;;;21.80;66.80;;;;;;5018966;28;20049;-72
2023/08/27 10:09:02;;;;;;;1.73;0.95;;;22.00;66.40;;;;;;5010856;28;20128;-73
2023/08/27 10:11:28;;;;;;;2.17;0.60;;;22.20;66.00;;;;;;5003726;28;20034;-73
2023/08/27 10:13:57;;;;;;;1.85;0.60;;;22.50;66.10;;;;;;5008422;28;20044;-72
2023/08/27 10:16:23;;;;;;;0.52;0.52;;;22.60;63.30;;;;;;5011402;28;20458;-72
2023/08/27 10:18:49;;;;;;;0.85;0.63;;;22.70;63.60;;;;;;5009385;28;20084;-73
2023/08/27 10:21:15;;;;;;;2.33;0.85;;;22.80;63.10;;;;;;5014498;28;20038;-72
2023/08/27 10:23:42;;;;;;;3.95;0.77;;;23.00;63.60;;;;;;5011124;28;20651;-72
2023/08/27 10:26:09;;;;;;;1.13;0.75;;;23.20;62.20;;;;;;5011684;28;20238;-72
2023/08/27 10:28:35;;;;;;;0.73;0.50;;;23.20;62.60;;;;;;5008548;28;20029;-71
2023/08/27 10:31:05;;;;;;;0.50;0.50;;;23.20;61.70;;;;;;5010921;28;20041;-70
2023/08/27 10:33:31;;;;;;;0.65;0.55;;;22.90;62.20;;;;;;4999445;28;20026;-71
2023/08/27 10:36:02;;;;;;;0.45;0.40;;;22.60;60.70;;;;;;5011883;28;20033;-71
2023/08/27 10:38:31;;;;;;;0.38;0.38;;;22.20;59.70;;;;;;5007820;28;20038;-71
2023/08/27 10:40:57;;;;;;;0.30;0.30;;;21.70;58.30;;;;;;5006030;28;20034;-71
2023/08/27 10:43:23;;;;;;;0.35;0.35;;;21.30;59.90;;;;;;4989831;28;20030;-73
2023/08/27 10:45:49;;;;;;;0.30;0.30;;;21.00;59.80;;;;;;5007211;28;20030;-73
2023/08/27 10:48:18;;;;;;;0.25;0.25;;;20.70;60.30;;;;;;5025990;28;20034;-73
2023/08/27 10:50:48;;;;;;;1.85;0.25;;;20.40;60.60;;;;;;5010723;28;20049;-73
2023/08/27 10:53:16;;;;;;;0.35;0.35;;;20.20;61.00;;;;;;5015507;28;20128;-74
2023/08/27 10:56:02;;;;;;;0.22;0.22;;;20.00;62.30;;;;;;5010632;28;20102;-73
2023/08/27 10:58:41;;;;;;;1.30;0.57;;;20.00;63.10;;;;;;5002245;28;20049;-73
2023/08/27 11:01:12;;;;;;;1.27;0.47;;;20.00;63.80;;;;;;5003438;28;20041;-73
2023/08/27 11:03:50;;;;;;;0.20;0.20;;;20.00;63.80;;;;;;5005781;28;20392;-73
2023/08/27 11:06:16;;;;;;;0.30;0.30;;;20.10;63.10;;;;;;5009744;28;20046;-73
2023/08/27 11:08:41;;;;;;;0.30;0.30;;;20.10;63.50;;;;;;5011248;28;20366;-73
2023/08/27 11:11:14;;;;;;;0.40;0.35;;;20.00;63.30;;;;;;5016465;28;20452;-73
2023/08/27 11:13:46;;;;;;;0.60;0.60;;;20.00;63.90;;;;;;5009248;28;20508;-73
2023/08/27 11:16:13;;;;;;;0.50;0.50;;;20.20;64.00;;;;;;5011277;28;20385;-73
2023/08/27 11:18:52;;;;;;;0.60;0.60;;;20.30;64.30;;;;;;5017752;28;20029;-72
2023/08/27 11:21:40;;;;;;;0.90;0.40;;;20.50;64.70;;;;;;5012084;28;20536;-72
2023/08/27 11:24:11;;;;;;;0.75;0.68;;;20.80;64.30;;;;;;5008111;28;20026;-73
2023/08/27 11:26:39;;;;;;;0.57;0.38;;;21.00;63.40;;;;;;5013822;28;20021;-71
2023/08/27 11:29:10;;;;;;;4.47;0.80;;;21.00;63.60;;;;;;5016114;28;20353;-73
2023/08/27 11:31:44;;;;;;;2.50;0.50;;;20.80;63.30;;;;;;5011096;28;20093;-74
2023/08/27 11:34:14;;;;;;;0.40;0.40;;;20.50;63.70;;;;;;5010373;28;20272;-73
2023/08/27 11:36:43;;;;;;;1.05;0.70;;;20.20;64.70;;;;;;5008118;28;20512;-71
2023/08/27 11:39:16;;;;;;;0.65;0.52;;;19.90;65.60;;;;;;5029003;28;20025;-71
2023/08/27 11:41:46;;;;;;;0.45;0.45;;;19.60;66.40;;;;;;5011954;28;20025;-70
2023/08/27 11:44:12;;;;;;;0.65;0.65;;;19.20;67.90;;;;;;5010017;28;20095;-70
2023/08/27 11:46:40;;;;;;;1.13;0.90;;;19.00;70.00;;;;;;5007768;28;20052;-70
2023/08/27 11:49:08;;;;;;;1.27;0.52;;;18.70;70.40;;;;;;5005529;28;20080;-72
2023/08/27 11:51:34;;;;;;;2.08;0.65;;;18.40;71.10;;;;;;5004344;28;20081;-70
2023/08/27 11:54:04;;;;;;;0.70;0.50;;;18.20;71.90;;;;;;5006208;28;20105;-70
2023/08/27 11:56:31;;;;;;;0.82;0.82;;;18.20;72.80;;;;;;5013765;28;20088;-73
2023/08/27 11:58:57;;;;;;;1.00;0.82;;;18.10;73.80;;;;;;5011819;28;20022;-73
2023/08/27 12:01:24;;;;;;;0.47;0.47;;;18.00;73.90;;;;;;5013740;28;20026;-73
2023/08/27 12:03:52;;;;;;;0.60;0.43;;;18.00;73.30;;;;;;5006785;28;20489;-70
2023/08/27 12:06:26;;;;;;;0.25;0.25;;;18.00;73.60;;;;;;5003567;28;20077;-70
2023/08/27 12:09:03;;;;;;;2.05;0.50;;;18.00;73.60;;;;;;5003842;28;20453;-70
2023/08/27 12:11:30;;;;;;;1.17;0.82;;;18.10;73.40;;;;;;5004882;28;20365;-73
2023/08/27 12:13:57;;;;;;;0.65;0.47;;;18.10;73.00;;;;;;5014850;28;20473;-73
2023/08/27 12:16:34;;;;;;;1.55;0.40;;;18.20;73.10;;;;;;5007375;28;20367;-71
2023/08/27 12:19:05;;;;;;;0.50;0.50;;;18.30;73.10;;;;;;5008472;28;20037;-70
2023/08/27 12:21:50;;;;;;;0.32;0.32;;;18.40;73.30;;;;;;5015112;28;20053;-73
2023/08/27 12:24:45;;;;;;;0.50;0.50;;;18.60;73.10;;;;;;5014852;28;20030;-74
2023/08/27 12:27:16;;;;;;;0.20;0.20;;;18.80;72.50;;;;;;5008449;28;20038;-74
2023/08/27 12:29:44;;;;;;;0.50;0.50;;;18.90;72.70;;;;;;5007383;28;20044;-70
2023/08/27 12:32:15;;;;;;;0.55;0.55;;;19.30;72.00;;;;;;5012587;28;20025;-74
2023/08/27 12:34:49;;;;;;;0.63;0.45;;;19.60;72.00;;;;;;5014350;28;20064;-73
2023/08/27 12:37:19;;;;;;;0.95;0.55;;;20.20;72.40;;;;;;5016711;28;20030;-71
2023/08/27 12:39:45;;;;;;;0.55;0.55;;;20.70;71.10;;;;;;5014320;28;20497;-74
2023/08/27 12:42:12;;;;;;;0.60;0.60;;;21.00;69.70;;;;;;5014669;28;20436;-71
2023/08/27 12:44:38;;;;;;;0.55;0.50;;;21.20;69.90;;;;;;5019289;28;20476;-74
2023/08/27 12:47:06;;;;;;;0.50;0.50;;;21.50;69.50;;;;;;5020349;28;20177;-74
2023/08/27 12:49:32;;;;;;;0.70;0.70;;;21.50;68.80;;;;;;5020845;28;20022;-73